DAOR

Béchar Boudghene Ben Ali Lotfi Airport

Béchar, Algeria
METAR DAOR 181300Z 28003KT CAVOK 14/M03 Q1019
Observed Flight Rules
Jan-18 @ 13:00 UTC (47 minutes ago) Visual Flight Rules
Wind Visibility Clouds
280° at 3 knots 10,000+ meters
  • Clear skies
Temperatures Readings
Current 14°C / 57°F
Dewpoint -3°C / 27°F
Humidity 31%
Altimeter 30.09" Hg
Pressure 1018.92 hPa
Elevation 773
METAR DAOR 181300Z 28003KT CAVOK 14/M03 Q1019
Observed Flight Rules
Jan-18 @ 13:00 UTC
(47 minutes ago)
VFR
Wind Visibility
280° at 3 knots 10,000+ meters
Clouds
  • Clear skies
Temperature Dewpoint
14°C / 57°F -3°C / 27°F
Humidity Altimeter Pressure
31% 30.09" Hg 1018.92 hPa